createdAt,value
2022-11-07T00:00:59.669Z,11.31
2022-11-07T00:08:21.239Z,11.44
2022-11-07T00:13:31.666Z,11.5
2022-11-07T00:18:41.402Z,11.31
2022-11-07T00:23:49.879Z,11.44
2022-11-07T00:29:00.285Z,11.44
2022-11-07T00:34:10.038Z,11.38
2022-11-07T00:39:19.800Z,11.38
2022-11-07T00:44:29.564Z,11.38
2022-11-07T00:49:38.685Z,11.5
2022-11-07T00:54:47.796Z,11.5
2022-11-07T00:59:58.278Z,11.44
2022-11-07T01:05:15.889Z,11.38
2022-11-07T01:10:33.968Z,11.38
2022-11-07T01:15:51.428Z,11.25
2022-11-07T01:21:09.791Z,11.31
2022-11-07T01:25:41.249Z,11.38
2022-11-07T01:30:49.770Z,11.44
2022-11-07T01:36:06.011Z,11.44
2022-11-07T01:41:07.962Z,11.44
2022-11-07T01:46:16.438Z,11.31
2022-11-07T01:51:25.560Z,11.25
2022-11-07T01:56:34.043Z,11
2022-11-07T02:01:43.964Z,11.06
2022-11-07T02:06:53.562Z,11
2022-11-07T02:12:02.042Z,10.88
2022-11-07T02:17:11.804Z,10.94
2022-11-07T02:22:20.920Z,11.06
2022-11-07T02:27:30.040Z,11
2022-11-07T02:32:38.520Z,10.88
2022-11-07T02:37:47.646Z,10.81
2022-11-07T02:42:56.120Z,10.88
2022-11-07T02:48:03.962Z,10.94
2022-11-07T02:53:13.032Z,10.88
2022-11-07T02:58:20.279Z,10.69
2022-11-07T03:03:30.041Z,10.75
2022-11-07T03:08:39.162Z,10.94
2022-11-07T03:13:53.647Z,10.88
2022-11-07T03:19:13.008Z,10.81
2022-11-07T03:24:30.090Z,11
2022-11-07T03:29:45.971Z,11.06
2022-11-07T03:35:02.766Z,11
2022-11-07T03:40:20.204Z,11.06
2022-11-07T03:45:37.704Z,11.12
2022-11-07T03:50:55.944Z,11
2022-11-07T03:56:13.163Z,11.06
2022-11-07T04:01:31.619Z,11.19
2022-11-07T04:06:48.853Z,11.06
2022-11-07T04:11:17.403Z,11
2022-11-07T04:15:44.839Z,11.06
2022-11-07T04:21:02.926Z,11.06
2022-11-07T04:25:56.616Z,11
2022-11-07T04:31:05.771Z,11
2022-11-07T04:36:14.199Z,10.88
2022-11-07T04:41:24.604Z,10.88
2022-11-07T04:46:33.090Z,10.94
2022-11-07T04:51:41.565Z,10.81
2022-11-07T04:56:51.354Z,10.94
2022-11-07T05:02:00.589Z,10.88
2022-11-07T05:07:08.923Z,11
2022-11-07T05:12:18.104Z,10.94
2022-11-07T05:17:28.294Z,10.88
2022-11-07T05:22:36.288Z,10.81
2022-11-07T05:27:45.386Z,10.88
2022-11-07T05:32:54.537Z,10.81
2022-11-07T05:38:03.672Z,10.81
2022-11-07T05:43:12.614Z,10.88
2022-11-07T05:48:21.863Z,10.75
2022-11-07T05:53:30.549Z,10.75
2022-11-07T05:58:39.483Z,10.88
2022-11-07T06:03:47.963Z,10.81
2022-11-07T06:08:58.999Z,10.88
2022-11-07T06:14:08.125Z,10.88
2022-11-07T06:19:21.166Z,10.94
2022-11-07T06:24:38.766Z,10.94
2022-11-07T06:29:54.845Z,10.94
2022-11-07T06:35:11.558Z,10.81
2022-11-07T06:40:27.292Z,11
2022-11-07T06:45:43.890Z,11.94
2022-11-07T06:50:11.956Z,12.06
2022-11-07T06:55:21.721Z,11.81
2022-11-07T07:00:31.795Z,11.56
2022-11-07T07:05:40.598Z,11.75
2022-11-07T07:10:50.358Z,11.62
2022-11-07T07:15:59.479Z,11.75
2022-11-07T07:21:09.260Z,11.81
2022-11-07T07:26:19.641Z,11.81
2022-11-07T07:31:28.830Z,12
2022-11-07T07:36:37.240Z,11.94
2022-11-07T07:41:45.716Z,12.06
2022-11-07T07:46:54.199Z,12.25
2022-11-07T07:52:09.182Z,12.31
2022-11-07T07:57:24.071Z,12.62
2022-11-07T08:02:45.303Z,12.38
2022-11-07T08:07:53.827Z,12.38
2022-11-07T08:13:10.023Z,12.56
2022-11-07T08:18:26.149Z,12.62
2022-11-07T08:23:41.028Z,12.62
2022-11-07T08:28:07.158Z,12.75
2022-11-07T08:33:17.610Z,12.94
2022-11-07T08:38:26.047Z,13.12
2022-11-07T08:43:36.454Z,13.19
2022-11-07T08:48:46.204Z,13.06
2022-11-07T08:53:55.974Z,13.12
2022-11-07T08:59:05.720Z,13.12
2022-11-07T09:04:15.006Z,13.12
2022-11-07T09:09:24.603Z,13.38
2022-11-07T09:15:14.794Z,13.44
2022-11-07T09:19:42.201Z,13.44
2022-11-07T09:24:51.329Z,13.69
2022-11-07T09:30:00.440Z,13.75
2022-11-07T09:35:10.277Z,13.88
2022-11-07T09:40:19.982Z,13.81
2022-11-07T09:45:29.741Z,13.81
2022-11-07T09:50:38.199Z,13.94
2022-11-07T09:55:46.678Z,14.06
2022-11-07T10:01:02.505Z,14
2022-11-07T10:06:23.126Z,14.12
2022-11-07T10:11:36.038Z,14.06
2022-11-07T10:16:51.449Z,14.06
2022-11-07T10:22:28.118Z,14
2022-11-07T10:26:41.398Z,13.88
2022-11-07T10:31:51.164Z,13.88
2022-11-07T10:37:06.050Z,13.69
2022-11-07T10:42:17.717Z,13.44
2022-11-07T10:47:26.206Z,13.5
2022-11-07T10:52:35.571Z,13.31
2022-11-07T10:57:44.442Z,13.25
2022-11-07T11:02:53.565Z,13.19
2022-11-07T11:08:02.708Z,13.25
2022-11-07T11:13:11.148Z,13.12
2022-11-07T11:18:20.364Z,13.38
2022-11-07T11:22:40.773Z,13.56
2022-11-07T11:22:47.171Z,13.56
2022-11-07T11:27:56.920Z,13.31
2022-11-07T11:28:04.486Z,13.31
2022-11-07T11:33:13.479Z,13.44
2022-11-07T11:33:21.574Z,13.44
2022-11-07T11:38:33.084Z,13.44
2022-11-07T11:38:39.494Z,13.44
2022-11-07T11:43:49.245Z,13.44
2022-11-07T11:43:55.655Z,13.44
2022-11-07T11:51:08.317Z,13.56
2022-11-07T11:51:57.164Z,13.56
2022-11-07T11:56:23.807Z,13.75
2022-11-07T11:56:30.291Z,13.75
2022-11-07T12:01:39.965Z,13.88
2022-11-07T12:01:46.181Z,13.88
2022-11-07T12:06:56.121Z,14.06
2022-11-07T12:08:47.602Z,14.06
2022-11-07T12:14:04.066Z,14.19
2022-11-07T12:14:57.523Z,14.19
2022-11-07T12:19:19.901Z,14.31
2022-11-07T12:20:09.930Z,14.31
2022-11-07T12:24:35.426Z,14.25
2022-11-07T12:25:25.427Z,14.25
2022-11-07T12:29:50.295Z,14.19
2022-11-07T12:30:40.339Z,14.19
2022-11-07T12:35:06.467Z,14.06
2022-11-07T12:35:56.477Z,14.06
2022-11-07T12:40:22.620Z,14.06
2022-11-07T12:41:12.629Z,14.06
2022-11-07T12:45:38.215Z,14.19
2022-11-07T12:46:28.222Z,14.19
2022-11-07T12:50:53.029Z,14.38
2022-11-07T12:52:33.027Z,14.38
2022-11-07T12:56:11.002Z,14.25
2022-11-07T13:03:06.626Z,14.31
2022-11-07T13:04:27.145Z,14.31
2022-11-07T13:09:22.687Z,14.25
2022-11-07T13:09:39.795Z,14.25
2022-11-07T13:14:40.125Z,14.44
2022-11-07T13:15:27.541Z,14.44
2022-11-07T13:20:25.087Z,14.62
2022-11-07T13:29:24.861Z,14.62
2022-11-07T13:34:41.666Z,14.5
2022-11-07T13:35:31.663Z,14.5
2022-11-07T13:39:56.543Z,14.5
2022-11-07T13:40:46.547Z,14.5
2022-11-07T13:45:12.068Z,14.56
2022-11-07T13:46:02.062Z,14.56
2022-11-07T13:50:28.866Z,14.56
2022-11-07T13:55:50.519Z,14.56
2022-11-07T13:57:23.849Z,14.56
2022-11-07T14:02:18.764Z,14.44
2022-11-07T14:02:28.014Z,14.44
2022-11-07T14:07:35.785Z,14.5
2022-11-07T14:08:46.294Z,14.5
2022-11-07T14:13:55.323Z,14.5
2022-11-07T14:14:02.856Z,14.5
2022-11-07T14:19:12.123Z,14.5
2022-11-07T14:19:18.623Z,14.5
2022-11-07T14:24:27.643Z,14.5
2022-11-07T14:24:40.761Z,14.5
2022-11-07T14:29:43.799Z,14.5
2022-11-07T14:29:50.936Z,14.5
2022-11-07T14:35:00.597Z,14.5
2022-11-07T14:41:27.263Z,14.5
2022-11-07T14:42:17.266Z,14.5
2022-11-07T14:47:02.097Z,14.5
2022-11-07T14:47:52.088Z,14.5
2022-11-07T14:52:02.096Z,14.5
2022-11-07T14:53:42.090Z,14.5
2022-11-07T14:57:38.047Z,14.56
2022-11-07T14:58:55.111Z,14.56
2022-11-07T15:02:55.697Z,14.44
2022-11-07T15:04:11.412Z,14.44
2022-11-07T15:08:12.970Z,14.5
2022-11-07T15:09:27.419Z,14.5
2022-11-07T15:13:28.441Z,14.5
2022-11-07T15:13:52.934Z,14.5
2022-11-07T15:18:43.319Z,14.44
2022-11-07T15:19:08.503Z,14.44
2022-11-07T15:23:58.208Z,14.31
2022-11-07T15:24:23.380Z,14.31
2022-11-07T15:29:13.732Z,14.31
2022-11-07T15:29:38.253Z,14.31
2022-11-07T15:35:07.679Z,14.25
2022-11-07T15:35:45.490Z,14.25
2022-11-07T15:39:43.481Z,14.25
2022-11-07T15:40:11.187Z,14.25
2022-11-07T15:44:58.364Z,14.31
2022-11-07T15:45:27.347Z,14.31
2022-11-07T15:50:16.447Z,14.12
2022-11-07T15:50:42.258Z,14.12
2022-11-07T15:55:33.243Z,14.19
2022-11-07T15:55:59.712Z,14.19
2022-11-07T16:00:48.764Z,14.19
2022-11-07T16:01:14.619Z,14.19
2022-11-07T16:06:03.641Z,14.06
2022-11-07T16:08:10.718Z,14.06
2022-11-07T16:12:36.232Z,14.06
2022-11-07T16:17:58.025Z,14.12
2022-11-07T16:18:41.111Z,14.12
2022-11-07T16:23:20.439Z,14.12
2022-11-07T16:24:17.490Z,14.12
2022-11-07T16:29:28.478Z,14.06
2022-11-07T16:30:31.902Z,14.06
2022-11-07T16:35:41.560Z,14.19
2022-11-07T16:37:29.731Z,14.19
2022-11-07T16:42:29.377Z,14.19
2022-11-07T16:43:19.385Z,14.19
2022-11-07T16:47:44.857Z,14.19
2022-11-07T16:48:34.862Z,14.19
2022-11-07T16:53:01.047Z,14.25
2022-11-07T16:53:51.054Z,14.25
2022-11-07T16:58:16.133Z,14.31
2022-11-07T16:59:05.895Z,14.31
2022-11-07T17:03:31.538Z,14.31
2022-11-07T17:04:21.545Z,14.31
2022-11-07T17:08:47.575Z,14.31
2022-11-07T17:09:37.587Z,14.31
2022-11-07T17:14:04.285Z,14.19
2022-11-07T17:14:53.109Z,14.19
2022-11-07T17:19:20.540Z,14.12
2022-11-07T17:20:16.391Z,14.12
2022-11-07T17:24:36.090Z,14.12
2022-11-07T17:25:26.092Z,14.12
2022-11-07T17:29:52.217Z,14.19
2022-11-07T17:32:22.227Z,14.19
2022-11-07T17:37:02.368Z,14.19
2022-11-07T17:37:52.367Z,14.19
2022-11-07T17:42:24.123Z,14.19
2022-11-07T17:43:11.169Z,14.19
2022-11-07T17:47:43.485Z,14.25
2022-11-07T17:48:30.397Z,14.25
2022-11-07T17:53:01.579Z,14.19
2022-11-07T17:53:46.532Z,14.19
2022-11-07T17:58:18.738Z,14.25
2022-11-07T17:59:02.075Z,14.25
2022-11-07T18:03:35.163Z,14.19
2022-11-07T18:04:19.255Z,14.19
2022-11-07T18:08:56.502Z,14.25
2022-11-07T18:09:36.269Z,14.25
2022-11-07T18:14:10.681Z,14.25
2022-11-07T18:16:18.211Z,14.25
2022-11-07T18:21:28.441Z,14.25
2022-11-07T18:22:18.459Z,14.25
2022-11-07T18:26:46.587Z,14.25
2022-11-07T18:32:56.585Z,14.25
2022-11-07T18:41:44.438Z,14.12
2022-11-07T18:48:43.107Z,14.25
2022-11-07T18:53:10.523Z,14.31
2022-11-07T18:58:19.869Z,14.12
2022-11-07T19:03:30.041Z,14.19
2022-11-07T19:08:38.552Z,14.31
2022-11-07T19:13:47.645Z,14.25
2022-11-07T19:18:56.127Z,14.19
2022-11-07T19:24:05.888Z,14.25
2022-11-07T19:29:14.985Z,14.19
2022-11-07T19:34:24.106Z,14.12
2022-11-07T19:39:32.596Z,14.25
2022-11-07T19:44:50.551Z,14.12
2022-11-07T19:49:50.846Z,14.25
2022-11-07T19:55:01.898Z,14.12
2022-11-07T20:00:11.115Z,14.12
2022-11-07T20:05:22.041Z,14.06
2022-11-07T20:10:30.561Z,14.06
2022-11-07T20:15:40.280Z,14.12
2022-11-07T20:20:54.577Z,14.12
2022-11-07T20:26:07.563Z,14.06
2022-11-07T20:31:24.533Z,14.12
2022-11-07T20:36:41.811Z,14.12
2022-11-07T20:41:59.401Z,14.12
2022-11-07T20:47:17.002Z,14.12
2022-11-07T20:51:45.402Z,14
2022-11-07T20:56:53.886Z,13.94
2022-11-07T21:02:04.221Z,13.88
2022-11-07T21:07:10.842Z,13.81
2022-11-07T21:12:19.329Z,13.75
2022-11-07T21:17:27.808Z,13.75
2022-11-07T21:22:36.280Z,13.69
2022-11-07T21:27:46.683Z,13.62
2022-11-07T21:32:55.167Z,13.56
2022-11-07T21:38:03.671Z,13.56
2022-11-07T21:43:11.490Z,13.5
2022-11-07T21:48:19.958Z,13.5
2022-11-07T21:53:29.079Z,13.5
2022-11-07T21:58:37.591Z,13.44
2022-11-07T22:04:07.793Z,13.31
2022-11-07T22:08:55.158Z,13.31
2022-11-07T22:14:05.532Z,13.25
2022-11-07T22:19:21.824Z,13.19
2022-11-07T22:24:36.704Z,13.25
2022-11-07T22:29:52.234Z,13.25
2022-11-07T22:35:09.236Z,13.25
2022-11-07T22:40:22.617Z,13.06
2022-11-07T22:45:37.533Z,13.06
2022-11-07T22:50:52.394Z,13.06
2022-11-07T22:55:18.521Z,12.94
2022-11-07T23:00:26.997Z,13
2022-11-07T23:05:37.399Z,13
2022-11-07T23:10:47.865Z,13
2022-11-07T23:15:57.564Z,12.94
2022-11-07T23:21:06.109Z,12.94
2022-11-07T23:26:15.832Z,12.81
2022-11-07T23:31:24.280Z,12.88
2022-11-07T23:36:32.768Z,12.94
2022-11-07T23:41:43.162Z,12.81
2022-11-07T23:46:52.907Z,12.81
2022-11-07T23:52:06.619Z,12.69
2022-11-07T23:57:22.927Z,12.62
